Time;durP1;ratioP1;P1;durP2;ratioP2;P2;SDS_P1;SDS_P2;PMS_P1;PMS_P2;Temp;Humidity;BMP_temperature;BMP_pressure;BME280_temperature;BME280_humidity;BME280_pressure;Samples;Min_cycle;Max_cycle;Signal;HPM_P1;HPM_P2
2021/11/25 00:00:09;;;;;;;9.13;8.30;;;;;;;7.13;73.77;100382.94;6176310;23;20421;-77
2021/11/25 00:02:38;;;;;;;10.50;9.35;;;;;;;7.18;73.77;100387.63;6203285;23;20064;-77
2021/11/25 00:05:19;;;;;;;;;;;;;;;;;;;;;
2021/11/25 00:07:46;;;;;;;11.93;7.55;;;;;;;7.07;73.27;100373.03;6228854;23;20027;-77
2021/11/25 00:10:22;;;;;;;;;;;;;;;;;;;;;
2021/11/25 00:12:48;;;;;;;16.33;10.02;;;;;;;7.09;73.22;100360.00;6229490;23;20024;-79
2021/11/25 00:15:17;;;;;;;15.00;10.52;;;;;;;7.26;73.47;100389.16;6227622;23;20323;-77
2021/11/25 00:18:33;;;;;;;;;;;;;;;;;;;;;
2021/11/25 00:21:09;;;;;;;11.73;9.15;;;;;;;7.40;73.82;100387.75;6221766;23;20048;-78
2021/11/25 00:23:35;;;;;;;12.88;9.80;;;;;;;7.32;73.16;100369.94;6203284;23;20035;-78
2021/11/25 00:26:11;;;;;;;;;;;;;;;;;;;;;
2021/11/25 00:28:40;;;;;;;25.42;12.93;;;;;;;7.42;73.65;100374.75;6232011;23;20027;-78
2021/11/25 00:31:05;;;;;;;16.13;10.85;;;;;;;7.42;73.96;100369.31;6178415;23;20012;-81
2021/11/25 00:33:34;;;;;;;12.55;10.38;;;;;;;7.43;73.44;100353.78;6202582;23;20076;-79
2021/11/25 00:36:03;;;;;;;10.52;8.77;;;;;;;7.43;73.64;100364.66;6203834;23;20005;-77
2021/11/25 00:38:29;;;;;;;12.00;9.73;;;;;;;7.26;73.70;100338.28;6226117;23;20058;-75
2021/11/25 00:40:54;;;;;;;14.02;8.93;;;;;;;7.49;74.31;100364.53;6225897;23;20089;-77
2021/11/25 00:43:21;;;;;;;8.88;7.90;;;;;;;7.46;73.31;100351.41;6174266;23;20016;-78
2021/11/25 00:45:47;;;;;;;14.75;8.38;;;;;;;7.56;73.96;100361.63;6198972;23;20009;-78
2021/11/25 00:48:13;;;;;;;11.23;9.98;;;;;;;7.59;73.66;100363.84;6224803;23;20007;-75
2021/11/25 00:50:39;;;;;;;10.35;9.35;;;;;;;7.62;73.43;100362.53;6223644;23;20009;-76
2021/11/25 00:53:05;;;;;;;12.32;9.18;;;;;;;7.63;73.69;100364.19;6174785;23;20039;-78
2021/11/25 00:55:31;;;;;;;10.88;9.60;;;;;;;7.61;73.91;100361.72;6227713;23;20316;-79
2021/11/25 00:57:56;;;;;;;17.17;11.00;;;;;;;7.63;72.90;100358.75;6202253;23;20009;-75
2021/11/25 01:00:23;;;;;;;12.65;11.00;;;;;;;7.64;73.38;100355.78;6201497;23;20031;-73
2021/11/25 01:02:49;;;;;;;13.90;10.60;;;;;;;7.66;73.38;100352.81;6174739;23;20032;-73
2021/11/25 01:05:16;;;;;;;10.18;9.15;;;;;;;7.63;73.55;100361.47;6227846;23;19997;-73
2021/11/25 01:07:43;;;;;;;15.48;10.40;;;;;;;7.59;73.49;100354.88;6225367;23;20062;-73
2021/11/25 01:10:11;;;;;;;13.27;11.23;;;;;;;7.57;73.80;100354.31;6223705;23;20000;-73
2021/11/25 01:12:37;;;;;;;10.80;9.80;;;;;;;7.55;73.09;100348.25;6197614;23;20027;-75
2021/11/25 01:15:29;;;;;;;14.70;11.07;;;;;;;7.56;73.77;100350.72;6172506;23;20335;-74
2021/11/25 01:18:08;;;;;;;16.70;9.63;;;;;;;7.44;73.23;100350.00;6195962;23;20730;-72
2021/11/25 01:20:39;;;;;;;11.02;9.38;;;;;;;7.38;73.32;100346.38;6222897;23;20135;-70
2021/11/25 01:23:12;;;;;;;8.55;7.75;;;;;;;7.32;73.06;100353.63;6196569;23;20009;-74
2021/11/25 01:25:47;;;;;;;9.07;8.10;;;;;;;7.17;73.45;100339.78;6223257;23;20004;-74
2021/11/25 01:28:13;;;;;;;14.52;9.60;;;;;;;7.19;73.33;100355.84;6225627;23;20056;-73
2021/11/25 01:30:43;;;;;;;10.50;9.05;;;;;;;7.12;73.68;100348.66;6228654;23;20018;-73
2021/11/25 01:33:09;;;;;;;9.35;7.32;;;;;;;7.12;74.23;100348.66;6200528;23;19997;-73
2021/11/25 01:35:36;;;;;;;8.88;8.07;;;;;;;7.16;74.31;100354.44;6226885;23;20001;-72
2021/11/25 01:38:03;;;;;;;9.13;7.63;;;;;;;7.23;74.85;100354.25;6227601;23;20071;-70
2021/11/25 01:40:29;;;;;;;9.02;8.23;;;;;;;7.29;73.73;100364.19;6198962;23;20374;-72
2021/11/25 01:42:55;;;;;;;11.23;8.25;;;;;;;7.32;74.13;100363.69;6200273;23;20012;-75
2021/11/25 01:45:24;;;;;;;8.60;7.00;;;;;;;7.35;74.05;100374.06;6228247;23;20089;-73
2021/11/25 01:47:50;;;;;;;11.27;8.02;;;;;;;7.33;74.20;100368.06;6178116;23;20012;-74
2021/11/25 01:50:18;;;;;;;8.50;7.68;;;;;;;7.36;73.76;100374.88;6177222;23;20104;-73
2021/11/25 01:52:45;;;;;;;10.23;7.32;;;;;;;7.39;73.80;100377.97;6229906;23;20000;-73
2021/11/25 01:55:17;;;;;;;7.85;7.00;;;;;;;7.40;73.87;100378.78;6177896;23;20009;-74
2021/11/25 01:57:44;;;;;;;8.60;6.97;;;;;;;7.38;74.08;100379.00;6203630;23;20021;-72
2021/11/25 02:00:16;;;;;;;6.82;6.28;;;;;;;7.31;73.80;100368.28;6202605;23;20004;-73
2021/11/25 02:02:42;;;;;;;7.90;7.25;;;;;;;7.36;73.45;100375.72;6228610;23;20060;-74
2021/11/25 02:05:09;;;;;;;8.18;7.25;;;;;;;7.36;73.42;100374.88;6178812;23;20042;-75
2021/11/25 02:07:35;;;;;;;7.53;6.53;;;;;;;7.28;73.58;100378.84;6202832;23;20012;-74
2021/11/25 02:10:00;;;;;;;8.15;7.32;;;;;;;7.26;74.02;100370.94;6177830;23;20004;-73
2021/11/25 02:12:26;;;;;;;8.35;6.45;;;;;;;7.32;74.17;100382.72;6199922;23;20083;-74
2021/11/25 02:14:52;;;;;;;7.35;6.68;;;;;;;7.37;73.69;100388.25;6200920;23;20028;-74
2021/11/25 02:17:19;;;;;;;6.93;6.45;;;;;;;7.36;73.77;100383.03;6226984;23;20005;-75
2021/11/25 02:19:48;;;;;;;10.35;6.00;;;;;;;7.42;73.51;100379.38;6200869;23;20015;-74
2021/11/25 02:22:14;;;;;;;7.53;6.75;;;;;;;7.47;73.84;100388.41;6200292;23;20439;-73
2021/11/25 02:24:39;;;;;;;5.93;5.57;;;;;;;7.50;73.63;100387.09;6201142;23;20020;-73
2021/11/25 02:27:05;;;;;;;6.90;6.25;;;;;;;7.50;73.42;100387.94;6226534;23;20028;-74
2021/11/25 02:29:30;;;;;;;5.75;5.32;;;;;;;7.54;72.95;100392.91;6200560;23;20008;-75
2021/11/25 02:31:56;;;;;;;5.20;4.80;;;;;;;7.58;73.14;100394.03;6194627;23;20099;-72
2021/11/25 02:34:22;;;;;;;6.38;5.75;;;;;;;7.59;73.93;100401.13;6219182;23;20012;-73
2021/11/25 02:36:48;;;;;;;4.63;4.32;;;;;;;7.62;73.18;100400.63;6218414;23;20029;-74
2021/11/25 02:39:14;;;;;;;6.95;6.25;;;;;;;7.62;73.17;100390.59;6192539;23;20324;-72
2021/11/25 02:41:39;;;;;;;6.07;5.35;;;;;;;7.60;73.29;100400.06;6216493;23;20098;-73
2021/11/25 02:44:05;;;;;;;6.72;5.55;;;;;;;7.57;72.97;100393.22;6215952;23;20000;-73
2021/11/25 02:46:31;;;;;;;4.80;4.50;;;;;;;7.57;73.22;100386.97;6190374;23;20035;-73
2021/11/25 02:48:59;;;;;;;5.07;4.55;;;;;;;7.63;72.59;100405.00;6162741;23;20107;-74
2021/11/25 02:51:37;;;;;;;;;;;;;;;;;;;;;
2021/11/25 02:54:03;;;;;;;4.65;3.55;;;;;;;7.67;72.71;100419.78;6212108;23;20080;-76
2021/11/25 02:56:30;;;;;;;6.63;4.03;;;;;;;7.67;72.05;100414.34;6216412;23;20100;-74
2021/11/25 02:58:57;;;;;;;4.80;3.70;;;;;;;7.67;72.83;100419.78;6215733;23;20076;-74
2021/11/25 03:01:36;;;;;;;3.53;3.22;;;;;;;7.67;72.68;100403.44;6187313;23;20001;-73
2021/11/25 03:04:03;;;;;;;3.28;3.10;;;;;;;7.64;72.58;100406.66;6214459;23;20043;-73
2021/11/25 03:06:29;;;;;;;3.40;3.20;;;;;;;7.57;71.97;100395.94;6188902;23;20005;-74
2021/11/25 03:08:55;;;;;;;2.90;2.70;;;;;;;7.64;71.50;100406.66;6189623;23;20008;-75
2021/11/25 03:11:23;;;;;;;2.75;2.55;;;;;;;7.57;71.89;100400.56;6216345;23;20011;-75
2021/11/25 03:13:52;;;;;;;2.90;2.70;;;;;;;7.57;71.87;100406.00;6215715;23;20004;-74
2021/11/25 03:16:20;;;;;;;3.30;2.97;;;;;;;7.54;71.70;100404.59;6187076;23;20007;-75
2021/11/25 03:18:47;;;;;;;3.40;2.47;;;;;;;7.55;72.33;100399.97;6190460;23;20024;-76
2021/11/25 03:21:25;;;;;;;2.10;2.00;;;;;;;7.54;71.21;100398.34;6189257;23;20051;-75
2021/11/25 03:23:54;;;;;;;4.30;2.53;;;;;;;7.45;71.79;100390.56;6190286;23;20309;-75
2021/11/25 03:26:25;;;;;;;3.22;3.00;;;;;;;7.35;71.26;100379.50;6190799;23;20012;-74
2021/11/25 03:28:51;;;;;;;2.35;2.15;;;;;;;7.43;71.86;100397.31;6220118;23;20019;-75
2021/11/25 03:31:20;;;;;;;3.25;2.03;;;;;;;7.42;71.35;100401.13;6216137;23;20036;-73
2021/11/25 03:33:46;;;;;;;4.05;2.67;;;;;;;7.39;71.96;100402.44;6219602;23;20004;-74
2021/11/25 03:36:13;;;;;;;2.08;1.98;;;;;;;7.32;71.41;100396.31;6190007;23;20071;-74
2021/11/25 03:38:39;;;;;;;2.45;2.28;;;;;;;7.31;71.88;100405.56;6191291;23;20012;-73
2021/11/25 03:41:07;;;;;;;1.90;1.80;;;;;;;7.33;71.83;100403.44;6192276;23;20043;-74
2021/11/25 03:43:33;;;;;;;1.98;1.88;;;;;;;7.32;71.85;100399.06;6191843;23;20530;-74
2021/11/25 03:45:58;;;;;;;3.65;2.25;;;;;;;7.29;72.08;100396.81;6217613;23;20028;-74
2021/11/25 03:48:28;;;;;;;1.58;1.35;;;;;;;7.30;71.11;100398.44;6190441;23;20328;-73
2021/11/25 03:50:58;;;;;;;2.03;1.92;;;;;;;7.30;71.34;100393.00;6216731;23;20404;-73
2021/11/25 03:53:24;;;;;;;4.70;2.47;;;;;;;7.31;71.25;100405.56;6190588;23;20012;-74
2021/11/25 03:55:50;;;;;;;3.08;1.67;;;;;;;7.26;70.56;100397.31;6190954;23;20003;-73
2021/11/25 03:58:19;;;;;;;2.13;1.88;;;;;;;7.30;71.01;100403.88;6215567;23;20011;-75
2021/11/25 04:00:46;;;;;;;1.95;1.27;;;;;;;7.33;70.35;100400.72;6217930;23;20022;-71
2021/11/25 04:03:13;;;;;;;2.35;1.40;;;;;;;7.33;71.27;100398.00;6220359;23;20031;-73
2021/11/25 04:05:39;;;;;;;1.50;1.33;;;;;;;7.31;70.18;100403.66;6220705;23;20008;-74
2021/11/25 04:08:05;;;;;;;2.05;1.27;;;;;;;7.29;70.27;100407.69;6222324;23;20011;-73
2021/11/25 04:10:31;;;;;;;2.28;1.20;;;;;;;7.29;70.41;100402.25;6221182;23;20103;-74
2021/11/25 04:12:56;;;;;;;1.13;1.02;;;;;;;7.30;70.47;100409.34;6192929;23;20013;-74
2021/11/25 04:15:22;;;;;;;3.45;0.75;;;;;;;7.29;69.78;100407.69;6195169;23;20110;-72
2021/11/25 04:17:48;;;;;;;1.60;0.98;;;;;;;7.28;69.60;100411.47;6219942;23;20012;-73
2021/11/25 04:20:14;;;;;;;1.38;0.82;;;;;;;7.30;69.53;100414.78;6219107;23;20008;-72
2021/11/25 04:22:40;;;;;;;1.20;0.80;;;;;;;7.27;69.80;100409.81;6216015;23;20107;-74
2021/11/25 04:25:07;;;;;;;1.60;0.65;;;;;;;7.27;69.29;100418.81;6166246;23;20420;-74
2021/11/25 04:27:33;;;;;;;0.68;0.43;;;;;;;7.26;69.63;100419.06;6191013;23;20016;-75
2021/11/25 04:30:13;;;;;;;2.95;0.80;;;;;;;7.15;69.38;100408.00;6213614;23;20577;-75
2021/11/25 04:35:34;;;;;;;0.82;0.63;;;;;;;6.92;68.89;100425.25;6217787;23;20018;-73
2021/11/25 04:38:02;;;;;;;0.90;0.50;;;;;;;6.81;68.40;100428.81;6218249;23;20001;-73
2021/11/25 04:40:33;;;;;;;0.70;0.40;;;;;;;6.68;69.25;100418.22;6190880;23;20079;-74
2021/11/25 04:43:00;;;;;;;0.77;0.47;;;;;;;6.58;68.66;100425.06;6191727;23;20012;-73
2021/11/25 04:45:26;;;;;;;1.80;0.65;;;;;;;6.50;69.08;100411.03;6198169;23;20011;-74
2021/11/25 04:48:04;;;;;;;1.50;0.60;;;;;;;6.39;69.23;100416.25;6226070;23;20004;-75
2021/11/25 04:50:30;;;;;;;0.47;0.32;;;;;;;6.39;68.68;100427.13;6227662;23;20047;-75
2021/11/25 04:52:55;;;;;;;0.50;0.40;;;;;;;6.30;69.05;100428.56;6226516;23;20012;-76
2021/11/25 04:55:26;;;;;;;0.75;0.52;;;;;;;6.26;68.35;100432.81;6226393;23;20004;-74
2021/11/25 04:57:52;;;;;;;0.90;0.85;;;;;;;6.01;69.23;100414.84;6197679;23;20000;-76
2021/11/25 05:00:30;;;;;;;;;;;;;;;;;;;;;
2021/11/25 05:03:00;;;;;;;1.55;0.60;;;;;;;5.94;68.41;100416.81;6220082;23;20481;-75
2021/11/25 05:05:26;;;;;;;0.40;0.30;;;;;;;5.93;68.11;100423.34;6196442;23;20008;-74
2021/11/25 05:07:51;;;;;;;1.98;0.28;;;;;;;5.92;68.78;100427.09;6197663;23;20001;-75
2021/11/25 05:10:17;;;;;;;1.63;0.68;;;;;;;5.86;68.56;100433.47;6197136;23;20012;-75
2021/11/25 05:12:43;;;;;;;1.08;0.50;;;;;;;5.80;67.73;100434.41;6223085;23;20004;-75
2021/11/25 05:15:12;;;;;;;0.82;0.35;;;;;;;5.72;67.66;100433.72;6197075;23;20069;-73
2021/11/25 05:17:38;;;;;;;2.13;0.50;;;;;;;5.57;67.91;100425.19;6220589;23;20459;-72
2021/11/25 05:20:06;;;;;;;0.43;0.40;;;;;;;5.64;67.41;100436.75;6220612;23;20008;-74
2021/11/25 05:22:32;;;;;;;0.93;0.50;;;;;;;5.56;67.31;100440.63;6222215;23;20016;-72
2021/11/25 05:24:58;;;;;;;1.40;0.30;;;;;;;5.47;67.28;100435.75;6224941;23;20027;-72
2021/11/25 05:27:23;;;;;;;0.30;0.30;;;;;;;5.42;67.73;100439.19;6171885;23;20018;-73
2021/11/25 05:29:49;;;;;;;1.70;0.30;;;;;;;5.32;67.52;100442.44;6225964;23;20007;-72
2021/11/25 05:32:16;;;;;;;3.10;0.40;;;;;;;5.25;67.48;100447.13;6225970;23;20036;-71
2021/11/25 05:34:45;;;;;;;1.38;0.38;;;;;;;5.19;67.53;100462.44;6224777;23;20019;-73
2021/11/25 05:37:12;;;;;;;0.47;0.32;;;;;;;5.09;67.88;100462.16;6199168;23;20003;-72
2021/11/25 05:39:38;;;;;;;1.25;0.52;;;;;;;4.94;67.73;100454.41;6197840;23;20123;-71
2021/11/25 05:42:04;;;;;;;0.35;0.25;;;;;;;4.90;67.57;100474.91;6226088;23;20020;-70
2021/11/25 05:44:29;;;;;;;0.50;0.30;;;;;;;4.84;67.42;100464.97;6171334;23;20005;-72
2021/11/25 05:46:55;;;;;;;2.30;0.30;;;;;;;4.76;67.82;100465.28;6226963;23;20008;-70
2021/11/25 05:49:21;;;;;;;2.03;0.70;;;;;;;4.66;68.38;100453.09;6200016;23;20000;-70
2021/11/25 05:51:46;;;;;;;1.55;0.20;;;;;;;4.64;68.52;100466.00;6173651;23;20086;-71
2021/11/25 05:54:12;;;;;;;0.60;0.20;;;;;;;4.57;68.10;100465.28;6173245;23;20044;-71
2021/11/25 05:56:38;;;;;;;2.47;0.50;;;;;;;4.57;68.35;100456.31;6224978;23;20000;-71
2021/11/25 05:59:04;;;;;;;5.28;0.60;;;;;;;4.53;67.70;100450.53;6225412;23;20078;-70
2021/11/25 06:01:30;;;;;;;2.17;0.38;;;;;;;4.48;67.76;100455.78;6172676;23;20012;-71
2021/11/25 06:03:55;;;;;;;1.15;0.38;;;;;;;4.41;67.99;100460.44;6172131;23;20032;-70
2021/11/25 06:06:22;;;;;;;0.22;0.10;;;;;;;4.28;68.66;100456.84;6221434;23;20012;-71
2021/11/25 06:08:49;;;;;;;2.97;0.57;;;;;;;4.17;68.17;100449.44;6224253;23;20327;-72
2021/11/25 06:11:15;;;;;;;1.95;0.47;;;;;;;4.15;68.38;100446.13;6194296;23;20004;-70
2021/11/25 06:13:41;;;;;;;0.80;0.32;;;;;;;4.11;68.63;100444.91;6223725;23;20001;-72
2021/11/25 06:16:06;;;;;;;1.00;0.40;;;;;;;4.04;68.71;100449.56;6175700;23;19996;-70
2021/11/25 06:18:32;;;;;;;3.05;0.35;;;;;;;3.90;68.70;100440.72;6197748;23;20095;-70
2021/11/25 06:21:04;;;;;;;1.05;0.73;;;;;;;3.87;69.18;100447.44;6170292;23;20332;-72
2021/11/25 06:23:30;;;;;;;0.52;0.20;;;;;;;3.87;69.51;100452.84;6172773;23;20017;-71
2021/11/25 06:25:56;;;;;;;0.68;0.40;;;;;;;3.74;68.90;100436.69;6168085;23;20008;-71
2021/11/25 06:28:31;;;;;;;1.45;0.47;;;;;;;3.75;69.20;100446.47;6196596;23;20436;-72
2021/11/25 06:30:58;;;;;;;1.75;0.40;;;;;;;3.70;69.58;100446.31;6196688;23;20000;-72
2021/11/25 06:33:24;;;;;;;1.92;0.35;;;;;;;3.55;69.37;100441.19;6187645;23;20015;-72
2021/11/25 06:35:50;;;;;;;1.10;0.40;;;;;;;3.64;69.74;100470.47;6193976;23;20085;-71
2021/11/25 06:38:18;;;;;;;5.68;0.80;;;;;;;3.52;69.29;100469.53;6192149;23;20332;-72
2021/11/25 06:40:44;;;;;;;1.10;0.30;;;;;;;3.49;69.64;100469.97;6193424;23;20375;-72
2021/11/25 06:43:10;;;;;;;1.20;0.25;;;;;;;3.52;69.81;100485.75;6193001;23;19997;-72
2021/11/25 06:45:37;;;;;;;0.45;0.30;;;;;;;3.49;70.14;100497.00;6193010;23;20031;-71
2021/11/25 06:48:03;;;;;;;3.42;0.60;;;;;;;3.44;69.81;100489.53;6192995;23;20001;-72
2021/11/25 06:50:33;;;;;;;0.45;0.20;;;;;;;3.42;69.85;100485.41;6195250;23;20043;-73
2021/11/25 06:52:59;;;;;;;2.72;0.40;;;;;;;3.42;70.02;100498.91;6191205;23;20063;-73
2021/11/25 06:55:31;;;;;;;2.58;0.40;;;;;;;3.36;70.17;100481.69;6167951;23;20013;-73
2021/11/25 06:57:56;;;;;;;2.58;0.68;;;;;;;3.37;70.43;100488.72;6192049;23;20081;-73
2021/11/25 07:00:25;;;;;;;1.77;0.30;;;;;;;3.37;70.21;100504.13;6188447;23;20061;-73
2021/11/25 07:02:53;;;;;;;2.20;0.43;;;;;;;3.30;70.56;100505.00;6191993;23;20024;-70
2021/11/25 07:05:37;;;;;;;;;;;;;;;;;;;;;
2021/11/25 07:08:15;;;;;;;1.70;0.45;;;;;;;3.28;70.43;100496.25;6195777;23;20029;-73
2021/11/25 07:11:00;;;;;;;;;;;;;;;;;;;;;
2021/11/25 07:14:20;;;;;;;0.30;0.20;;;;;;;3.22;70.96;100502.53;6198852;23;20123;-76
2021/11/25 07:16:56;;;;;;;;;;;;;;;;;;;;;
2021/11/25 07:19:35;;;;;;;;;;;;;;;;;;;;;
2021/11/25 07:22:07;;;;;;;1.50;0.35;;;;;;;3.45;71.05;100530.94;6222457;23;20063;-72
2021/11/25 07:24:35;;;;;;;4.38;1.05;;;;;;;3.42;71.56;100524.06;6225741;23;19996;-71
2021/11/25 07:27:02;;;;;;;1.75;0.45;;;;;;;3.40;71.38;100511.81;6223218;23;20071;-72
2021/11/25 07:29:30;;;;;;;3.35;1.55;;;;;;;3.51;71.17;100523.84;6227395;23;20415;-71
2021/11/25 07:32:03;;;;;;;4.35;0.47;;;;;;;3.57;71.62;100526.47;6207225;23;20004;-73
2021/11/25 07:34:29;;;;;;;1.10;0.65;;;;;;;3.60;71.84;100531.44;6186378;23;20013;-71
2021/11/25 07:36:54;;;;;;;0.95;0.70;;;;;;;3.62;71.79;100526.66;6185284;23;20004;-71
2021/11/25 07:39:20;;;;;;;2.08;0.85;;;;;;;3.78;71.62;100535.28;6209890;23;20020;-74
2021/11/25 07:41:46;;;;;;;1.63;0.52;;;;;;;3.81;71.14;100537.56;6158345;23;20009;-71
2021/11/25 07:44:11;;;;;;;1.77;0.40;;;;;;;3.84;71.43;100537.13;6154101;23;20035;-70
2021/11/25 07:46:40;;;;;;;0.68;0.68;;;;;;;3.83;71.07;100543.59;6203805;23;20035;-72
2021/11/25 07:49:06;;;;;;;1.23;0.40;;;;;;;3.85;71.49;100546.91;6179385;23;20091;-72
2021/11/25 07:51:32;;;;;;;0.85;0.25;;;;;;;3.76;71.08;100534.69;6202631;23;20008;-73
2021/11/25 07:53:58;;;;;;;1.50;0.40;;;;;;;3.77;71.18;100547.19;6229418;23;20032;-72
2021/11/25 07:56:24;;;;;;;2.78;0.60;;;;;;;3.70;71.31;100547.22;6202479;23;20004;-73
2021/11/25 07:58:50;;;;;;;1.52;0.40;;;;;;;3.69;71.54;100553.66;6202329;23;20032;-73
2021/11/25 08:01:16;;;;;;;1.38;0.50;;;;;;;3.62;71.28;100551.00;6227589;23;20094;-74
2021/11/25 08:03:44;;;;;;;0.57;0.43;;;;;;;3.55;71.67;100550.22;6202935;23;20320;-73
2021/11/25 08:06:10;;;;;;;0.82;0.40;;;;;;;3.51;70.85;100564.38;6173032;23;20020;-73
2021/11/25 08:08:35;;;;;;;3.28;0.50;;;;;;;3.45;71.55;100566.06;6227884;23;20060;-74
2021/11/25 08:11:03;;;;;;;1.33;0.50;;;;;;;3.41;71.37;100567.53;6227231;23;20083;-73
2021/11/25 08:13:32;;;;;;;1.98;0.88;;;;;;;3.28;71.55;100566.53;6225113;23;20051;-75
2021/11/25 08:15:59;;;;;;;1.98;0.90;;;;;;;3.26;71.80;100571.34;6194147;23;20008;-71
2021/11/25 08:18:25;;;;;;;3.40;0.52;;;;;;;3.33;71.72;100590.25;6227176;23;20011;-73
2021/11/25 08:20:53;;;;;;;1.30;0.63;;;;;;;3.29;72.19;100583.63;6193933;23;20020;-70
2021/11/25 08:23:18;;;;;;;2.53;0.50;;;;;;;3.30;71.95;100586.09;6170089;23;20013;-70
2021/11/25 08:25:44;;;;;;;0.50;0.40;;;;;;;3.37;72.31;100596.88;6195332;23;20005;-71
2021/11/25 08:28:10;;;;;;;1.27;0.55;;;;;;;3.35;72.46;100598.97;6196923;23;20009;-71
2021/11/25 08:30:35;;;;;;;1.15;0.43;;;;;;;3.40;71.76;100609.13;6198096;23;20001;-73
2021/11/25 08:33:01;;;;;;;2.13;0.50;;;;;;;3.40;72.32;100606.44;6194789;23;20005;-71
2021/11/25 08:35:28;;;;;;;1.67;0.45;;;;;;;3.44;72.73;100610.38;6196164;23;20218;-71
2021/11/25 08:37:55;;;;;;;0.45;0.25;;;;;;;3.46;72.39;100616.38;6194701;23;20029;-72
2021/11/25 08:40:21;;;;;;;0.57;0.20;;;;;;;3.48;72.67;100620.53;6196032;23;20062;-72
2021/11/25 08:42:48;;;;;;;0.90;0.17;;;;;;;3.46;71.95;100609.13;6195717;23;20043;-72
2021/11/25 08:45:17;;;;;;;0.68;0.40;;;;;;;3.56;71.93;100621.34;6196345;23;20008;-72
2021/11/25 08:47:43;;;;;;;3.58;0.60;;;;;;;3.60;72.54;100617.16;6197278;23;20069;-72
2021/11/25 08:50:13;;;;;;;0.60;0.60;;;;;;;3.59;72.62;100619.06;6195101;23;20005;-71
2021/11/25 08:52:39;;;;;;;2.42;0.43;;;;;;;3.67;72.48;100629.59;6195034;23;20009;-72
2021/11/25 08:55:16;;;;;;;3.08;0.70;;;;;;;3.75;71.95;100630.41;6183896;23;20104;-72
2021/11/25 08:57:45;;;;;;;0.80;0.77;;;;;;;3.71;72.12;100612.94;6197517;23;20053;-72
2021/11/25 09:00:11;;;;;;;2.50;0.60;;;;;;;3.80;71.98;100617.06;6196433;23;20005;-71
2021/11/25 09:03:26;;;;;;;4.88;0.65;;;;;;;3.90;72.43;100638.22;6196211;23;20257;-74
2021/11/25 09:06:13;;;;;;;3.65;0.30;;;;;;;3.89;71.76;100615.75;6169934;23;20124;-74
2021/11/25 09:09:56;;;;;;;;;;;;;;;;;;;;;
2021/11/25 09:12:34;;;;;;;;;;;;;;;;;;;;;
2021/11/25 09:15:00;;;;;;;0.68;0.38;;;;;;;5.87;71.95;100633.25;6195876;23;20029;-73
2021/11/25 09:17:47;;;;;;;;;;;;;;;;;;;;;
2021/11/25 09:20:41;;;;;;;1.83;0.68;;;;;;;8.62;67.46;100639.81;6197501;22;20379;-74
2021/11/25 09:23:21;;;;;;;1.90;0.50;;;;;;;9.54;64.60;100643.88;6197512;23;20024;-74
2021/11/25 09:28:38;;;;;;;2.38;0.40;;;;;;;11.51;60.29;100639.03;6170599;23;20005;-72
2021/11/25 09:31:17;;;;;;;;;;;;;;;;;;;;;
2021/11/25 09:33:52;;;;;;;0.30;0.30;;;;;;;12.73;56.25;100637.66;6188119;23;20443;-72
2021/11/25 09:36:39;;;;;;;1.05;0.35;;;;;;;13.44;54.54;100644.09;6186202;23;20024;-73
2021/11/25 09:39:18;;;;;;;3.40;0.50;;;;;;;13.70;51.93;100630.28;6189789;23;20028;-72
2021/11/25 09:41:47;;;;;;;1.25;0.50;;;;;;;14.22;50.91;100625.31;6162905;23;20000;-73
2021/11/25 09:44:13;;;;;;;0.55;0.45;;;;;;;14.77;49.68;100658.19;6162615;23;20005;-72
2021/11/25 09:46:41;;;;;;;0.93;0.40;;;;;;;15.28;49.24;100645.06;6160520;23;20380;-73
2021/11/25 09:49:17;;;;;;;;;;;;;;;;;;;;;
2021/11/25 09:55:04;;;;;;;1.02;0.55;;;;;;;16.57;42.48;100663.47;6172624;23;20009;-73
2021/11/25 09:57:40;;;;;;;;;;;;;;;;;;;;;
2021/11/25 10:00:14;;;;;;;0.68;0.60;;;;;;;17.18;42.11;100647.00;6191102;23;20460;-74
2021/11/25 10:03:19;;;;;;;;;;;;;;;;;;;;;
2021/11/25 10:06:32;;;;;;;;;;;;;;;;;;;;;
2021/11/25 10:10:03;;;;;;;0.93;0.70;;;;;;;18.71;37.00;100677.22;6102416;23;20048;-74
2021/11/25 10:12:36;;;;;;;0.52;0.52;;;;;;;18.91;37.84;100671.19;6125462;23;20320;-73
2021/11/25 10:15:33;;;;;;;0.82;0.47;;;;;;;19.61;37.95;100681.78;6191228;23;20017;-73
2021/11/25 10:18:02;;;;;;;;;;;;;;;20.24;35.38;100671.38;6191078;23;20007;-74
2021/11/25 10:30:51;;;;;;;4.85;0.70;;;;;;;22.08;33.58;100682.81;6148637;23;20024;-73
2021/11/25 10:34:38;;;;;;;;;;;;;;;;;;;;;
2021/11/25 10:37:35;;;;;;;;;;;;;;;;;;;;;
2021/11/25 10:40:30;;;;;;;1.10;0.50;;;;;;;22.87;29.62;100671.03;6070189;23;20403;-73
2021/11/25 10:46:58;;;;;;;;;;;;;;;;;;;;;
2021/11/25 10:50:15;;;;;;;2.03;0.20;;;;;;;24.39;29.96;100671.22;5955820;24;20087;-72
2021/11/25 11:00:28;;;;;;;0.47;0.30;;;;;;;25.32;26.31;100681.41;6070340;23;20033;-71
2021/11/25 11:03:13;;;;;;;4.13;0.50;;;;;;;25.75;26.13;100670.44;6042659;23;20338;-73
2021/11/25 11:06:49;;;;;;;0.57;0.38;;;;;;;26.16;24.97;100668.19;6040917;23;20485;-71
2021/11/25 11:09:45;;;;;;;;;;;;;;;;;;;;;
2021/11/25 11:12:32;;;;;;;;;;;;;;;;;;;;;
2021/11/25 11:22:02;;;;;;;;;;;;;;;;;;;;;
2021/11/25 11:25:56;;;;;;;2.38;0.43;;;;;;;26.82;21.72;100680.41;6031952;23;20088;-74
2021/11/25 11:28:10;;;;;;;0.68;0.40;;;;;;;26.83;23.16;100675.59;6144211;23;20531;-73
2021/11/25 11:33:49;;;;;;;2.20;0.45;;;;;;;27.51;23.08;100665.63;6095247;23;20384;-72
2021/11/25 11:36:15;;;;;;;0.60;0.30;;;;;;;28.00;22.67;100680.84;6125780;23;20030;-72
2021/11/25 11:38:58;;;;;;;;;;;;;;;;;;;;;
2021/11/25 11:42:01;;;;;;;0.40;0.30;;;;;;;28.66;22.14;100683.31;6188253;23;20033;-74
2021/11/25 11:44:45;;;;;;;;;;;;;;;;;;;;;
2021/11/25 11:47:22;;;;;;;6.55;0.60;;;;;;;29.39;21.58;100668.81;6188869;23;20012;-74
2021/11/25 11:50:07;;;;;;;0.75;0.45;;;;;;;29.67;20.05;100656.16;6163877;23;20084;-77
2021/11/25 11:53:31;;;;;;;3.25;0.70;;;;;;;29.94;19.53;100664.41;6160576;23;20502;-73
2021/11/25 11:56:18;;;;;;;;;;;;;;;;;;;;;
2021/11/25 11:59:13;;;;;;;1.05;0.45;;;;;;;29.81;18.99;100668.72;6191965;23;20333;-76
2021/11/25 12:01:50;;;;;;;;;;;;;;;;;;;;;
2021/11/25 12:04:16;;;;;;;0.68;0.50;;;;;;;29.67;19.16;100647.72;6188518;23;20072;-74
2021/11/25 12:06:59;;;;;;;0.90;0.50;;;;;;;30.03;18.50;100667.69;6163510;23;20001;-73
2021/11/25 12:10:14;;;;;;;3.10;0.50;;;;;;;30.23;19.00;100670.22;6162937;23;20012;-73
2021/11/25 12:13:42;;;;;;;;;;;;;;;;;;;;;
2021/11/25 12:16:43;;;;;;;0.82;0.82;;;;;;;30.25;18.12;100659.34;6193004;23;20448;-73
2021/11/25 12:23:00;;;;;;;0.80;0.50;;;;;;;31.14;18.55;100656.00;6158378;23;20237;-75
2021/11/25 12:25:51;;;;;;;;;;;;;;;;;;;;;
2021/11/25 12:28:21;;;;;;;0.93;0.60;;;;;;;31.27;17.13;100636.66;6194027;23;20103;-73
2021/11/25 12:31:20;;;;;;;0.88;0.55;;;;;;;31.06;16.69;100609.22;6167603;23;20005;-73
2021/11/25 12:33:52;;;;;;;0.90;0.40;;;;;;;31.08;16.76;100626.56;6194846;23;20040;-72
2021/11/25 12:37:19;;;;;;;;;;;;;;;;;;;;;
2021/11/25 12:39:51;;;;;;;2.70;0.95;;;;;;;30.48;15.72;100611.09;6072809;23;20031;-73
2021/11/25 12:43:09;;;;;;;2.47;0.50;;;;;;;30.48;16.76;100604.66;6169927;23;20009;-73
2021/11/25 12:45:44;;;;;;;0.88;0.40;;;;;;;30.66;16.86;100593.41;6153581;23;20344;-72
2021/11/25 12:48:13;;;;;;;0.47;0.38;;;;;;;30.79;16.58;100595.44;6166507;23;19997;-74
2021/11/25 12:50:59;;;;;;;1.48;0.32;;;;;;;31.25;17.39;100610.00;6168969;23;20031;-72
2021/11/25 12:54:02;;;;;;;0.68;0.43;;;;;;;31.59;16.18;100612.44;6167211;23;20009;-73
2021/11/25 12:56:35;;;;;;;2.35;0.50;;;;;;;31.40;15.84;100611.63;6196556;23;20001;-72
2021/11/25 12:59:50;;;;;;;;;;;;;;;;;;;;;
2021/11/25 13:02:16;;;;;;;1.80;0.45;;;;;;;30.81;15.86;100598.69;6193307;23;20044;-73
2021/11/25 13:08:46;;;;;;;1.10;0.57;;;;;;;30.80;16.10;100591.41;5986983;23;20015;-73
2021/11/25 13:12:28;;;;;;;3.40;0.60;;;;;;;30.93;15.11;100611.59;6168039;23;20074;-73
2021/11/25 13:15:05;;;;;;;;;;;;;;;;;;;;;
2021/11/25 13:18:02;;;;;;;0.80;0.68;;;;;;;30.33;15.16;100601.75;6152070;23;20036;-74
2021/11/25 13:20:51;;;;;;;0.73;0.45;;;;;;;30.10;16.21;100577.50;6117515;23;20009;-75
2021/11/25 13:23:47;;;;;;;1.13;0.50;;;;;;;30.24;15.87;100587.22;6190191;22;20016;-73
2021/11/25 13:26:20;;;;;;;0.63;0.40;;;;;;;30.39;16.23;100607.84;6194392;23;20001;-73
2021/11/25 13:29:07;;;;;;;;;;;;;;;;;;;;;
2021/11/25 13:31:46;;;;;;;1.83;0.60;;;;;;;30.36;16.03;100592.50;6224233;23;20025;-76
2021/11/25 13:41:24;;;;;;;;;;;;;;;31.60;15.95;100595.09;6207326;23;20004;-75
2021/11/25 13:48:04;;;;;;;;;;;;;;;;;;;;;